sensor_id;sensor_type;location;lat;lon;timestamp;P1;durP1;ratioP1;P2;durP2;ratioP2
72501;SDS011;60524;49.874;8.652;2022-07-03T00:00:54;4.37;;;2.03;;
72501;SDS011;60524;49.874;8.652;2022-07-03T00:03:19;4.70;;;2.53;;
72501;SDS011;60524;49.874;8.652;2022-07-03T00:05:45;5.78;;;2.70;;
72501;SDS011;60524;49.874;8.652;2022-07-03T00:08:10;6.23;;;2.50;;
72501;SDS011;60524;49.874;8.652;2022-07-03T00:10:39;4.15;;;2.40;;
72501;SDS011;60524;49.874;8.652;2022-07-03T00:13:04;5.90;;;2.08;;
72501;SDS011;60524;49.874;8.652;2022-07-03T00:15:32;6.53;;;2.40;;
72501;SDS011;60524;49.874;8.652;2022-07-03T00:17:59;3.88;;;1.65;;
72501;SDS011;60524;49.874;8.652;2022-07-03T00:20:25;3.77;;;1.73;;
72501;SDS011;60524;49.874;8.652;2022-07-03T00:22:57;2.97;;;1.60;;
72501;SDS011;60524;49.874;8.652;2022-07-03T00:25:24;5.90;;;1.65;;
72501;SDS011;60524;49.874;8.652;2022-07-03T00:27:50;5.78;;;2.25;;
72501;SDS011;60524;49.874;8.652;2022-07-03T00:30:15;4.25;;;2.03;;
72501;SDS011;60524;49.874;8.652;2022-07-03T00:32:43;4.20;;;1.60;;
72501;SDS011;60524;49.874;8.652;2022-07-03T00:35:09;3.20;;;1.67;;
72501;SDS011;60524;49.874;8.652;2022-07-03T00:37:38;1.92;;;1.17;;
72501;SDS011;60524;49.874;8.652;2022-07-03T00:40:04;3.90;;;1.23;;
72501;SDS011;60524;49.874;8.652;2022-07-03T00:42:32;3.35;;;1.55;;
72501;SDS011;60524;49.874;8.652;2022-07-03T00:45:02;7.80;;;1.33;;
72501;SDS011;60524;49.874;8.652;2022-07-03T00:47:32;2.38;;;1.00;;
72501;SDS011;60524;49.874;8.652;2022-07-03T00:50:00;2.13;;;1.13;;
72501;SDS011;60524;49.874;8.652;2022-07-03T00:52:33;2.25;;;1.23;;
72501;SDS011;60524;49.874;8.652;2022-07-03T00:54:59;3.33;;;0.95;;
72501;SDS011;60524;49.874;8.652;2022-07-03T00:57:29;5.72;;;1.00;;
72501;SDS011;60524;49.874;8.652;2022-07-03T00:59:54;2.22;;;1.15;;
72501;SDS011;60524;49.874;8.652;2022-07-03T01:10:43;1.35;;;0.85;;
72501;SDS011;60524;49.874;8.652;2022-07-03T01:13:14;1.75;;;1.10;;
72501;SDS011;60524;49.874;8.652;2022-07-03T01:15:56;2.83;;;1.30;;
72501;SDS011;60524;49.874;8.652;2022-07-03T01:18:44;2.15;;;1.10;;
72501;SDS011;60524;49.874;8.652;2022-07-03T01:21:17;2.70;;;1.38;;
72501;SDS011;60524;49.874;8.652;2022-07-03T01:26:28;2.22;;;1.25;;
72501;SDS011;60524;49.874;8.652;2022-07-03T01:28:58;2.55;;;1.30;;
72501;SDS011;60524;49.874;8.652;2022-07-03T01:31:28;2.67;;;1.20;;
72501;SDS011;60524;49.874;8.652;2022-07-03T01:33:57;3.58;;;1.60;;
72501;SDS011;60524;49.874;8.652;2022-07-03T01:36:23;3.33;;;1.27;;
72501;SDS011;60524;49.874;8.652;2022-07-03T01:38:50;2.35;;;1.27;;
72501;SDS011;60524;49.874;8.652;2022-07-03T01:41:16;2.20;;;1.30;;
72501;SDS011;60524;49.874;8.652;2022-07-03T01:43:49;2.63;;;1.40;;
72501;SDS011;60524;49.874;8.652;2022-07-03T01:46:17;1.48;;;0.90;;
72501;SDS011;60524;49.874;8.652;2022-07-03T01:48:44;3.55;;;1.23;;
72501;SDS011;60524;49.874;8.652;2022-07-03T01:51:13;2.22;;;1.23;;
72501;SDS011;60524;49.874;8.652;2022-07-03T01:53:47;2.17;;;1.00;;
72501;SDS011;60524;49.874;8.652;2022-07-03T01:56:17;1.52;;;0.88;;
72501;SDS011;60524;49.874;8.652;2022-07-03T01:58:45;1.58;;;0.95;;
72501;SDS011;60524;49.874;8.652;2022-07-03T02:01:20;1.80;;;1.07;;
72501;SDS011;60524;49.874;8.652;2022-07-03T02:06:42;4.28;;;1.00;;
72501;SDS011;60524;49.874;8.652;2022-07-03T02:09:09;1.65;;;0.80;;
72501;SDS011;60524;49.874;8.652;2022-07-03T02:16:43;1.23;;;0.77;;
72501;SDS011;60524;49.874;8.652;2022-07-03T02:21:47;2.75;;;0.70;;
72501;SDS011;60524;49.874;8.652;2022-07-03T02:24:20;1.65;;;0.88;;
72501;SDS011;60524;49.874;8.652;2022-07-03T02:26:54;1.15;;;0.60;;
72501;SDS011;60524;49.874;8.652;2022-07-03T02:29:26;1.15;;;0.70;;
72501;SDS011;60524;49.874;8.652;2022-07-03T02:31:59;0.98;;;0.55;;
72501;SDS011;60524;49.874;8.652;2022-07-03T02:34:27;5.90;;;0.93;;
72501;SDS011;60524;49.874;8.652;2022-07-03T02:36:56;1.25;;;0.80;;
72501;SDS011;60524;49.874;8.652;2022-07-03T02:39:29;1.40;;;0.90;;
72501;SDS011;60524;49.874;8.652;2022-07-03T02:42:04;1.52;;;0.82;;
72501;SDS011;60524;49.874;8.652;2022-07-03T02:44:35;1.45;;;1.00;;
72501;SDS011;60524;49.874;8.652;2022-07-03T02:47:09;3.92;;;0.90;;
72501;SDS011;60524;49.874;8.652;2022-07-03T02:49:50;1.65;;;0.80;;
72501;SDS011;60524;49.874;8.652;2022-07-03T02:57:43;1.20;;;0.80;;
72501;SDS011;60524;49.874;8.652;2022-07-03T03:00:11;1.50;;;0.90;;
72501;SDS011;60524;49.874;8.652;2022-07-03T03:02:52;1.35;;;0.90;;
72501;SDS011;60524;49.874;8.652;2022-07-03T03:07:59;1.13;;;0.75;;
72501;SDS011;60524;49.874;8.652;2022-07-03T03:10:25;3.35;;;0.60;;
72501;SDS011;60524;49.874;8.652;2022-07-03T03:12:52;4.03;;;0.60;;
72501;SDS011;60524;49.874;8.652;2022-07-03T03:15:31;1.10;;;0.60;;
72501;SDS011;60524;49.874;8.652;2022-07-03T03:18:00;4.38;;;0.77;;
72501;SDS011;60524;49.874;8.652;2022-07-03T03:20:31;1.90;;;0.80;;
72501;SDS011;60524;49.874;8.652;2022-07-03T03:25:42;1.58;;;0.60;;
72501;SDS011;60524;49.874;8.652;2022-07-03T03:28:10;2.40;;;1.08;;
72501;SDS011;60524;49.874;8.652;2022-07-03T03:30:40;3.28;;;1.25;;
72501;SDS011;60524;49.874;8.652;2022-07-03T03:33:06;2.30;;;1.10;;
72501;SDS011;60524;49.874;8.652;2022-07-03T03:35:38;2.20;;;0.90;;
72501;SDS011;60524;49.874;8.652;2022-07-03T03:38:06;2.67;;;0.95;;
72501;SDS011;60524;49.874;8.652;2022-07-03T03:40:34;3.28;;;0.90;;
72501;SDS011;60524;49.874;8.652;2022-07-03T03:43:02;2.95;;;0.98;;
72501;SDS011;60524;49.874;8.652;2022-07-03T03:45:30;2.63;;;1.10;;
72501;SDS011;60524;49.874;8.652;2022-07-03T03:47:58;1.73;;;1.00;;
72501;SDS011;60524;49.874;8.652;2022-07-03T03:50:23;2.63;;;1.00;;
72501;SDS011;60524;49.874;8.652;2022-07-03T03:52:49;1.63;;;0.88;;
72501;SDS011;60524;49.874;8.652;2022-07-03T03:55:14;2.00;;;1.00;;
72501;SDS011;60524;49.874;8.652;2022-07-03T03:57:39;4.73;;;1.10;;
72501;SDS011;60524;49.874;8.652;2022-07-03T04:00:07;2.20;;;1.05;;
72501;SDS011;60524;49.874;8.652;2022-07-03T04:02:38;2.70;;;1.25;;
72501;SDS011;60524;49.874;8.652;2022-07-03T04:05:03;5.60;;;1.40;;
72501;SDS011;60524;49.874;8.652;2022-07-03T04:07:31;2.35;;;1.00;;
72501;SDS011;60524;49.874;8.652;2022-07-03T04:09:56;1.67;;;0.93;;
72501;SDS011;60524;49.874;8.652;2022-07-03T04:12:24;3.28;;;1.08;;
72501;SDS011;60524;49.874;8.652;2022-07-03T04:14:52;2.58;;;0.98;;
72501;SDS011;60524;49.874;8.652;2022-07-03T04:17:17;3.37;;;1.30;;
72501;SDS011;60524;49.874;8.652;2022-07-03T04:19:44;4.35;;;1.10;;
72501;SDS011;60524;49.874;8.652;2022-07-03T04:22:10;4.60;;;1.10;;
72501;SDS011;60524;49.874;8.652;2022-07-03T04:24:35;7.83;;;1.27;;
72501;SDS011;60524;49.874;8.652;2022-07-03T04:27:04;3.60;;;1.02;;
72501;SDS011;60524;49.874;8.652;2022-07-03T04:29:32;3.83;;;1.20;;
72501;SDS011;60524;49.874;8.652;2022-07-03T04:32:00;2.25;;;1.10;;
72501;SDS011;60524;49.874;8.652;2022-07-03T04:34:25;1.60;;;0.90;;
72501;SDS011;60524;49.874;8.652;2022-07-03T04:36:50;2.78;;;1.42;;
72501;SDS011;60524;49.874;8.652;2022-07-03T04:39:16;1.35;;;0.93;;
72501;SDS011;60524;49.874;8.652;2022-07-03T04:41:41;1.67;;;0.90;;
72501;SDS011;60524;49.874;8.652;2022-07-03T04:44:06;5.23;;;1.10;;
72501;SDS011;60524;49.874;8.652;2022-07-03T04:46:32;4.32;;;1.20;;
72501;SDS011;60524;49.874;8.652;2022-07-03T04:48:57;1.67;;;1.05;;
72501;SDS011;60524;49.874;8.652;2022-07-03T04:51:23;4.85;;;1.20;;
72501;SDS011;60524;49.874;8.652;2022-07-03T04:53:48;4.47;;;1.10;;
72501;SDS011;60524;49.874;8.652;2022-07-03T04:56:13;5.93;;;1.20;;
72501;SDS011;60524;49.874;8.652;2022-07-03T04:58:39;1.93;;;1.27;;
72501;SDS011;60524;49.874;8.652;2022-07-03T05:01:04;1.93;;;1.10;;
72501;SDS011;60524;49.874;8.652;2022-07-03T05:03:29;3.92;;;1.40;;
72501;SDS011;60524;49.874;8.652;2022-07-03T05:05:57;2.73;;;1.20;;
72501;SDS011;60524;49.874;8.652;2022-07-03T05:08:23;2.28;;;1.10;;
72501;SDS011;60524;49.874;8.652;2022-07-03T05:10:48;2.10;;;1.20;;
72501;SDS011;60524;49.874;8.652;2022-07-03T05:13:14;2.30;;;1.03;;
72501;SDS011;60524;49.874;8.652;2022-07-03T05:15:39;5.30;;;1.27;;
72501;SDS011;60524;49.874;8.652;2022-07-03T05:18:04;2.20;;;1.13;;
72501;SDS011;60524;49.874;8.652;2022-07-03T05:20:32;1.83;;;0.95;;
72501;SDS011;60524;49.874;8.652;2022-07-03T05:23:00;4.72;;;1.25;;
72501;SDS011;60524;49.874;8.652;2022-07-03T05:25:27;1.30;;;0.90;;
72501;SDS011;60524;49.874;8.652;2022-07-03T05:27:53;3.90;;;1.05;;
72501;SDS011;60524;49.874;8.652;2022-07-03T05:30:19;2.75;;;1.10;;
72501;SDS011;60524;49.874;8.652;2022-07-03T05:32:48;1.60;;;0.90;;
72501;SDS011;60524;49.874;8.652;2022-07-03T05:35:14;1.52;;;0.90;;
72501;SDS011;60524;49.874;8.652;2022-07-03T05:37:39;1.20;;;0.73;;
72501;SDS011;60524;49.874;8.652;2022-07-03T05:40:05;2.00;;;1.00;;
72501;SDS011;60524;49.874;8.652;2022-07-03T05:42:33;2.75;;;0.82;;
72501;SDS011;60524;49.874;8.652;2022-07-03T05:45:01;4.47;;;0.93;;
72501;SDS011;60524;49.874;8.652;2022-07-03T05:47:32;1.88;;;0.88;;
72501;SDS011;60524;49.874;8.652;2022-07-03T05:49:58;1.45;;;1.00;;
72501;SDS011;60524;49.874;8.652;2022-07-03T05:52:25;2.58;;;1.13;;
72501;SDS011;60524;49.874;8.652;2022-07-03T05:54:54;1.23;;;0.80;;
72501;SDS011;60524;49.874;8.652;2022-07-03T05:57:19;2.40;;;1.10;;
72501;SDS011;60524;49.874;8.652;2022-07-03T05:59:45;2.28;;;0.90;;
72501;SDS011;60524;49.874;8.652;2022-07-03T06:02:13;3.20;;;0.70;;
72501;SDS011;60524;49.874;8.652;2022-07-03T06:04:43;2.47;;;0.90;;
72501;SDS011;60524;49.874;8.652;2022-07-03T06:07:09;1.60;;;0.80;;
72501;SDS011;60524;49.874;8.652;2022-07-03T06:09:38;2.60;;;1.00;;
72501;SDS011;60524;49.874;8.652;2022-07-03T06:12:04;3.13;;;1.10;;
72501;SDS011;60524;49.874;8.652;2022-07-03T06:14:32;1.00;;;0.73;;
72501;SDS011;60524;49.874;8.652;2022-07-03T06:16:57;2.67;;;0.70;;
72501;SDS011;60524;49.874;8.652;2022-07-03T06:19:25;4.03;;;1.10;;
72501;SDS011;60524;49.874;8.652;2022-07-03T06:21:54;1.88;;;0.75;;
72501;SDS011;60524;49.874;8.652;2022-07-03T06:24:19;4.68;;;1.10;;
72501;SDS011;60524;49.874;8.652;2022-07-03T06:26:46;1.90;;;0.80;;
72501;SDS011;60524;49.874;8.652;2022-07-03T06:29:13;1.25;;;0.80;;
72501;SDS011;60524;49.874;8.652;2022-07-03T06:31:41;1.42;;;0.77;;
72501;SDS011;60524;49.874;8.652;2022-07-03T06:34:11;4.75;;;1.00;;
72501;SDS011;60524;49.874;8.652;2022-07-03T06:36:39;2.60;;;1.10;;
72501;SDS011;60524;49.874;8.652;2022-07-03T06:39:04;2.33;;;0.97;;
72501;SDS011;60524;49.874;8.652;2022-07-03T06:41:32;1.40;;;0.75;;
72501;SDS011;60524;49.874;8.652;2022-07-03T06:43:58;1.30;;;0.60;;
72501;SDS011;60524;49.874;8.652;2022-07-03T06:46:25;2.40;;;0.90;;
72501;SDS011;60524;49.874;8.652;2022-07-03T06:48:51;1.07;;;0.73;;
72501;SDS011;60524;49.874;8.652;2022-07-03T06:51:16;4.87;;;0.90;;
72501;SDS011;60524;49.874;8.652;2022-07-03T06:53:46;1.63;;;0.73;;
72501;SDS011;60524;49.874;8.652;2022-07-03T06:56:14;1.27;;;0.70;;
72501;SDS011;60524;49.874;8.652;2022-07-03T06:58:42;1.23;;;0.70;;
72501;SDS011;60524;49.874;8.652;2022-07-03T07:01:09;1.20;;;0.80;;
72501;SDS011;60524;49.874;8.652;2022-07-03T07:03:35;2.72;;;1.17;;
72501;SDS011;60524;49.874;8.652;2022-07-03T07:06:00;2.63;;;0.85;;
72501;SDS011;60524;49.874;8.652;2022-07-03T07:08:26;1.53;;;0.90;;
72501;SDS011;60524;49.874;8.652;2022-07-03T07:10:53;5.20;;;1.08;;
72501;SDS011;60524;49.874;8.652;2022-07-03T07:13:23;1.55;;;0.90;;
72501;SDS011;60524;49.874;8.652;2022-07-03T07:15:49;1.40;;;0.77;;
72501;SDS011;60524;49.874;8.652;2022-07-03T07:18:16;1.27;;;0.80;;
72501;SDS011;60524;49.874;8.652;2022-07-03T07:20:42;1.10;;;0.70;;
72501;SDS011;60524;49.874;8.652;2022-07-03T07:23:08;0.93;;;0.70;;
72501;SDS011;60524;49.874;8.652;2022-07-03T07:25:36;1.13;;;0.80;;
72501;SDS011;60524;49.874;8.652;2022-07-03T07:28:07;1.48;;;0.90;;
72501;SDS011;60524;49.874;8.652;2022-07-03T07:30:34;1.67;;;0.98;;
72501;SDS011;60524;49.874;8.652;2022-07-03T07:33:06;1.73;;;0.82;;
72501;SDS011;60524;49.874;8.652;2022-07-03T07:35:32;1.70;;;0.70;;
72501;SDS011;60524;49.874;8.652;2022-07-03T07:37:58;1.08;;;0.75;;
72501;SDS011;60524;49.874;8.652;2022-07-03T07:40:23;2.25;;;0.82;;
72501;SDS011;60524;49.874;8.652;2022-07-03T07:42:49;1.35;;;0.65;;
72501;SDS011;60524;49.874;8.652;2022-07-03T07:45:16;6.45;;;0.70;;
72501;SDS011;60524;49.874;8.652;2022-07-03T07:47:42;1.77;;;0.80;;
72501;SDS011;60524;49.874;8.652;2022-07-03T07:50:08;1.13;;;0.80;;
72501;SDS011;60524;49.874;8.652;2022-07-03T07:52:33;2.25;;;0.80;;
72501;SDS011;60524;49.874;8.652;2022-07-03T07:54:59;4.75;;;0.95;;
72501;SDS011;60524;49.874;8.652;2022-07-03T07:57:36;1.15;;;0.70;;
72501;SDS011;60524;49.874;8.652;2022-07-03T08:00:12;1.13;;;0.70;;
72501;SDS011;60524;49.874;8.652;2022-07-03T08:02:44;2.05;;;0.80;;
72501;SDS011;60524;49.874;8.652;2022-07-03T08:05:29;1.42;;;0.90;;
72501;SDS011;60524;49.874;8.652;2022-07-03T08:10:38;2.05;;;0.90;;
72501;SDS011;60524;49.874;8.652;2022-07-03T08:13:08;5.35;;;0.90;;
72501;SDS011;60524;49.874;8.652;2022-07-03T08:15:37;2.30;;;1.10;;
72501;SDS011;60524;49.874;8.652;2022-07-03T08:18:05;1.38;;;0.73;;
72501;SDS011;60524;49.874;8.652;2022-07-03T08:20:31;1.40;;;0.73;;
72501;SDS011;60524;49.874;8.652;2022-07-03T08:22:56;8.23;;;1.10;;
72501;SDS011;60524;49.874;8.652;2022-07-03T08:25:24;1.23;;;0.80;;
72501;SDS011;60524;49.874;8.652;2022-07-03T08:27:50;2.53;;;0.93;;
72501;SDS011;60524;49.874;8.652;2022-07-03T08:30:16;1.73;;;0.90;;
72501;SDS011;60524;49.874;8.652;2022-07-03T08:32:50;2.50;;;0.90;;
72501;SDS011;60524;49.874;8.652;2022-07-03T08:35:18;1.92;;;0.90;;
72501;SDS011;60524;49.874;8.652;2022-07-03T08:37:43;1.73;;;0.95;;
72501;SDS011;60524;49.874;8.652;2022-07-03T08:40:15;3.65;;;0.95;;
72501;SDS011;60524;49.874;8.652;2022-07-03T08:42:45;1.50;;;0.77;;
72501;SDS011;60524;49.874;8.652;2022-07-03T08:45:15;2.20;;;1.00;;
72501;SDS011;60524;49.874;8.652;2022-07-03T08:47:45;1.08;;;0.70;;
72501;SDS011;60524;49.874;8.652;2022-07-03T08:50:16;1.80;;;0.85;;
72501;SDS011;60524;49.874;8.652;2022-07-03T08:52:45;2.45;;;1.15;;
72501;SDS011;60524;49.874;8.652;2022-07-03T08:55:12;1.90;;;0.80;;
72501;SDS011;60524;49.874;8.652;2022-07-03T08:57:41;1.67;;;0.82;;
72501;SDS011;60524;49.874;8.652;2022-07-03T09:00:11;1.77;;;0.90;;
72501;SDS011;60524;49.874;8.652;2022-07-03T09:02:41;3.53;;;0.63;;
72501;SDS011;60524;49.874;8.652;2022-07-03T09:05:09;1.08;;;0.70;;
72501;SDS011;60524;49.874;8.652;2022-07-03T09:07:35;1.20;;;0.63;;
72501;SDS011;60524;49.874;8.652;2022-07-03T09:10:04;1.58;;;0.82;;
72501;SDS011;60524;49.874;8.652;2022-07-03T09:12:34;1.20;;;0.60;;
72501;SDS011;60524;49.874;8.652;2022-07-03T09:15:03;1.42;;;0.70;;
72501;SDS011;60524;49.874;8.652;2022-07-03T09:17:30;1.08;;;0.68;;
72501;SDS011;60524;49.874;8.652;2022-07-03T09:19:59;1.60;;;0.90;;
72501;SDS011;60524;49.874;8.652;2022-07-03T09:22:33;1.23;;;0.80;;
72501;SDS011;60524;49.874;8.652;2022-07-03T09:25:07;1.45;;;0.68;;
72501;SDS011;60524;49.874;8.652;2022-07-03T09:27:36;0.90;;;0.55;;
72501;SDS011;60524;49.874;8.652;2022-07-03T09:30:12;0.77;;;0.57;;
72501;SDS011;60524;49.874;8.652;2022-07-03T09:35:21;1.17;;;0.60;;
72501;SDS011;60524;49.874;8.652;2022-07-03T09:40:19;0.95;;;0.52;;
72501;SDS011;60524;49.874;8.652;2022-07-03T09:42:58;0.98;;;0.60;;
72501;SDS011;60524;49.874;8.652;2022-07-03T09:45:27;1.73;;;0.60;;
72501;SDS011;60524;49.874;8.652;2022-07-03T09:47:52;1.88;;;0.77;;
72501;SDS011;60524;49.874;8.652;2022-07-03T09:50:20;2.60;;;0.60;;
72501;SDS011;60524;49.874;8.652;2022-07-03T09:52:48;1.45;;;0.70;;
72501;SDS011;60524;49.874;8.652;2022-07-03T09:55:17;2.67;;;0.70;;
72501;SDS011;60524;49.874;8.652;2022-07-03T10:00:24;1.02;;;0.60;;
72501;SDS011;60524;49.874;8.652;2022-07-03T10:02:51;2.20;;;0.85;;
72501;SDS011;60524;49.874;8.652;2022-07-03T10:05:41;1.05;;;0.70;;
72501;SDS011;60524;49.874;8.652;2022-07-03T10:10:37;7.38;;;0.60;;
72501;SDS011;60524;49.874;8.652;2022-07-03T10:13:04;2.78;;;0.60;;
72501;SDS011;60524;49.874;8.652;2022-07-03T10:15:31;3.35;;;0.90;;
72501;SDS011;60524;49.874;8.652;2022-07-03T10:17:58;1.38;;;0.50;;
72501;SDS011;60524;49.874;8.652;2022-07-03T10:20:30;2.65;;;0.68;;
72501;SDS011;60524;49.874;8.652;2022-07-03T10:23:00;1.48;;;0.73;;
72501;SDS011;60524;49.874;8.652;2022-07-03T10:25:28;1.10;;;0.70;;
72501;SDS011;60524;49.874;8.652;2022-07-03T10:27:54;3.03;;;0.90;;
72501;SDS011;60524;49.874;8.652;2022-07-03T10:30:21;3.08;;;0.93;;
72501;SDS011;60524;49.874;8.652;2022-07-03T10:32:47;1.02;;;0.60;;
72501;SDS011;60524;49.874;8.652;2022-07-03T10:35:32;0.65;;;0.50;;
72501;SDS011;60524;49.874;8.652;2022-07-03T10:38:46;1.40;;;0.80;;
72501;SDS011;60524;49.874;8.652;2022-07-03T10:44:07;1.50;;;0.80;;
72501;SDS011;60524;49.874;8.652;2022-07-03T10:46:51;3.47;;;0.60;;
72501;SDS011;60524;49.874;8.652;2022-07-03T10:49:19;1.27;;;0.70;;
72501;SDS011;60524;49.874;8.652;2022-07-03T11:02:21;4.78;;;0.60;;
72501;SDS011;60524;49.874;8.652;2022-07-03T11:07:24;0.70;;;0.50;;
72501;SDS011;60524;49.874;8.652;2022-07-03T11:15:48;1.20;;;0.60;;
72501;SDS011;60524;49.874;8.652;2022-07-03T11:18:15;4.88;;;0.60;;
72501;SDS011;60524;49.874;8.652;2022-07-03T11:25:46;1.55;;;0.50;;
72501;SDS011;60524;49.874;8.652;2022-07-03T11:41:22;1.67;;;0.50;;
72501;SDS011;60524;49.874;8.652;2022-07-03T11:43:49;2.03;;;0.50;;
72501;SDS011;60524;49.874;8.652;2022-07-03T11:46:19;2.05;;;0.50;;
72501;SDS011;60524;49.874;8.652;2022-07-03T11:48:45;0.80;;;0.47;;
72501;SDS011;60524;49.874;8.652;2022-07-03T11:51:10;2.27;;;0.50;;
72501;SDS011;60524;49.874;8.652;2022-07-03T11:53:36;1.40;;;0.50;;
72501;SDS011;60524;49.874;8.652;2022-07-03T11:58:44;1.40;;;0.50;;
72501;SDS011;60524;49.874;8.652;2022-07-03T12:03:53;3.67;;;0.45;;
72501;SDS011;60524;49.874;8.652;2022-07-03T12:06:26;1.40;;;0.50;;
72501;SDS011;60524;49.874;8.652;2022-07-03T12:08:56;1.17;;;0.40;;
72501;SDS011;60524;49.874;8.652;2022-07-03T12:11:21;0.70;;;0.40;;
72501;SDS011;60524;49.874;8.652;2022-07-03T12:13:49;2.13;;;1.00;;
72501;SDS011;60524;49.874;8.652;2022-07-03T12:16:17;1.17;;;0.55;;
72501;SDS011;60524;49.874;8.652;2022-07-03T12:18:49;0.60;;;0.32;;
72501;SDS011;60524;49.874;8.652;2022-07-03T12:21:19;1.20;;;0.40;;
72501;SDS011;60524;49.874;8.652;2022-07-03T12:23:51;5.03;;;0.52;;
72501;SDS011;60524;49.874;8.652;2022-07-03T12:28:57;4.70;;;0.57;;
72501;SDS011;60524;49.874;8.652;2022-07-03T12:31:26;1.00;;;0.50;;
72501;SDS011;60524;49.874;8.652;2022-07-03T12:33:57;6.32;;;0.60;;
72501;SDS011;60524;49.874;8.652;2022-07-03T12:36:25;1.85;;;0.65;;
72501;SDS011;60524;49.874;8.652;2022-07-03T12:38:53;0.63;;;0.40;;
72501;SDS011;60524;49.874;8.652;2022-07-03T12:41:22;0.50;;;0.40;;
72501;SDS011;60524;49.874;8.652;2022-07-03T12:43:49;4.28;;;0.50;;
72501;SDS011;60524;49.874;8.652;2022-07-03T12:46:22;2.50;;;0.50;;
72501;SDS011;60524;49.874;8.652;2022-07-03T12:49:09;0.77;;;0.55;;
72501;SDS011;60524;49.874;8.652;2022-07-03T12:51:42;3.28;;;0.70;;
72501;SDS011;60524;49.874;8.652;2022-07-03T12:54:11;6.82;;;0.77;;
72501;SDS011;60524;49.874;8.652;2022-07-03T12:56:38;1.52;;;0.70;;
72501;SDS011;60524;49.874;8.652;2022-07-03T12:59:04;1.52;;;0.63;;
72501;SDS011;60524;49.874;8.652;2022-07-03T13:01:45;3.03;;;0.70;;
72501;SDS011;60524;49.874;8.652;2022-07-03T13:04:33;2.85;;;0.70;;
72501;SDS011;60524;49.874;8.652;2022-07-03T13:07:05;2.35;;;0.50;;
72501;SDS011;60524;49.874;8.652;2022-07-03T13:09:32;0.80;;;0.40;;
72501;SDS011;60524;49.874;8.652;2022-07-03T13:11:58;2.00;;;0.60;;
72501;SDS011;60524;49.874;8.652;2022-07-03T13:14:28;1.80;;;0.80;;
72501;SDS011;60524;49.874;8.652;2022-07-03T13:16:54;1.37;;;0.57;;
72501;SDS011;60524;49.874;8.652;2022-07-03T13:19:23;0.98;;;0.57;;
72501;SDS011;60524;49.874;8.652;2022-07-03T13:21:54;2.78;;;0.63;;
72501;SDS011;60524;49.874;8.652;2022-07-03T13:24:20;2.47;;;0.57;;
72501;SDS011;60524;49.874;8.652;2022-07-03T13:26:46;7.43;;;0.60;;
72501;SDS011;60524;49.874;8.652;2022-07-03T13:29:15;2.63;;;0.50;;
72501;SDS011;60524;49.874;8.652;2022-07-03T13:31:44;2.95;;;0.63;;
72501;SDS011;60524;49.874;8.652;2022-07-03T13:34:11;1.83;;;0.70;;
72501;SDS011;60524;49.874;8.652;2022-07-03T13:36:37;4.10;;;1.10;;
72501;SDS011;60524;49.874;8.652;2022-07-03T13:39:02;1.35;;;0.77;;
72501;SDS011;60524;49.874;8.652;2022-07-03T13:41:30;3.50;;;0.60;;
72501;SDS011;60524;49.874;8.652;2022-07-03T13:44:00;0.90;;;0.57;;
72501;SDS011;60524;49.874;8.652;2022-07-03T13:46:28;0.93;;;0.45;;
72501;SDS011;60524;49.874;8.652;2022-07-03T13:48:55;2.80;;;0.70;;
72501;SDS011;60524;49.874;8.652;2022-07-03T13:51:23;1.00;;;0.55;;
72501;SDS011;60524;49.874;8.652;2022-07-03T13:53:51;1.10;;;0.50;;
72501;SDS011;60524;49.874;8.652;2022-07-03T13:56:18;3.08;;;0.80;;
72501;SDS011;60524;49.874;8.652;2022-07-03T13:58:44;2.00;;;0.60;;
72501;SDS011;60524;49.874;8.652;2022-07-03T14:01:11;1.15;;;0.65;;
72501;SDS011;60524;49.874;8.652;2022-07-03T14:03:38;0.82;;;0.40;;
72501;SDS011;60524;49.874;8.652;2022-07-03T14:06:03;1.67;;;0.50;;
72501;SDS011;60524;49.874;8.652;2022-07-03T14:08:31;0.90;;;0.52;;
72501;SDS011;60524;49.874;8.652;2022-07-03T14:10:57;0.63;;;0.45;;
72501;SDS011;60524;49.874;8.652;2022-07-03T14:13:25;1.17;;;0.45;;
72501;SDS011;60524;49.874;8.652;2022-07-03T14:15:52;4.15;;;0.60;;
72501;SDS011;60524;49.874;8.652;2022-07-03T14:18:18;0.82;;;0.47;;
72501;SDS011;60524;49.874;8.652;2022-07-03T14:20:45;1.48;;;0.73;;
72501;SDS011;60524;49.874;8.652;2022-07-03T14:23:11;1.77;;;0.70;;
72501;SDS011;60524;49.874;8.652;2022-07-03T14:25:36;1.10;;;0.40;;
72501;SDS011;60524;49.874;8.652;2022-07-03T14:28:09;2.00;;;0.43;;
72501;SDS011;60524;49.874;8.652;2022-07-03T14:30:53;1.20;;;0.60;;
72501;SDS011;60524;49.874;8.652;2022-07-03T14:33:37;1.52;;;0.50;;
72501;SDS011;60524;49.874;8.652;2022-07-03T14:36:02;1.00;;;0.50;;
72501;SDS011;60524;49.874;8.652;2022-07-03T14:38:33;0.85;;;0.50;;
72501;SDS011;60524;49.874;8.652;2022-07-03T14:41:01;0.55;;;0.38;;
72501;SDS011;60524;49.874;8.652;2022-07-03T14:43:28;0.40;;;0.20;;
72501;SDS011;60524;49.874;8.652;2022-07-03T14:45:54;0.57;;;0.30;;
72501;SDS011;60524;49.874;8.652;2022-07-03T14:48:19;3.25;;;0.50;;
72501;SDS011;60524;49.874;8.652;2022-07-03T14:50:48;1.15;;;0.43;;
72501;SDS011;60524;49.874;8.652;2022-07-03T14:53:13;1.02;;;0.40;;
72501;SDS011;60524;49.874;8.652;2022-07-03T14:55:39;0.50;;;0.30;;
72501;SDS011;60524;49.874;8.652;2022-07-03T15:00:52;1.00;;;0.40;;
72501;SDS011;60524;49.874;8.652;2022-07-03T15:05:58;1.30;;;0.35;;
72501;SDS011;60524;49.874;8.652;2022-07-03T15:11:02;1.40;;;0.50;;
72501;SDS011;60524;49.874;8.652;2022-07-03T15:13:32;3.25;;;0.77;;
72501;SDS011;60524;49.874;8.652;2022-07-03T15:15:58;1.88;;;0.57;;
72501;SDS011;60524;49.874;8.652;2022-07-03T15:18:26;6.78;;;0.75;;
72501;SDS011;60524;49.874;8.652;2022-07-03T15:20:53;0.57;;;0.38;;
72501;SDS011;60524;49.874;8.652;2022-07-03T15:23:18;2.80;;;1.30;;
72501;SDS011;60524;49.874;8.652;2022-07-03T15:25:49;1.10;;;0.57;;
72501;SDS011;60524;49.874;8.652;2022-07-03T15:28:14;1.45;;;0.60;;
72501;SDS011;60524;49.874;8.652;2022-07-03T15:30:51;0.40;;;0.30;;
72501;SDS011;60524;49.874;8.652;2022-07-03T15:33:18;1.30;;;0.60;;
72501;SDS011;60524;49.874;8.652;2022-07-03T15:35:49;2.33;;;0.57;;
72501;SDS011;60524;49.874;8.652;2022-07-03T15:38:23;2.58;;;0.80;;
72501;SDS011;60524;49.874;8.652;2022-07-03T15:40:54;1.73;;;0.70;;
72501;SDS011;60524;49.874;8.652;2022-07-03T15:44:23;2.05;;;0.30;;
72501;SDS011;60524;49.874;8.652;2022-07-03T15:51:56;1.75;;;0.65;;
72501;SDS011;60524;49.874;8.652;2022-07-03T15:57:09;1.15;;;0.57;;
72501;SDS011;60524;49.874;8.652;2022-07-03T16:05:27;1.02;;;0.40;;
72501;SDS011;60524;49.874;8.652;2022-07-03T16:07:58;2.50;;;0.60;;
72501;SDS011;60524;49.874;8.652;2022-07-03T16:10:27;4.35;;;0.30;;
72501;SDS011;60524;49.874;8.652;2022-07-03T16:12:56;1.45;;;0.52;;
72501;SDS011;60524;49.874;8.652;2022-07-03T16:15:26;3.00;;;0.73;;
72501;SDS011;60524;49.874;8.652;2022-07-03T16:17:57;0.80;;;0.47;;
72501;SDS011;60524;49.874;8.652;2022-07-03T16:20:26;1.58;;;0.68;;
72501;SDS011;60524;49.874;8.652;2022-07-03T16:22:54;1.50;;;0.73;;
72501;SDS011;60524;49.874;8.652;2022-07-03T16:25:22;1.83;;;0.70;;
72501;SDS011;60524;49.874;8.652;2022-07-03T16:27:49;3.25;;;1.50;;
72501;SDS011;60524;49.874;8.652;2022-07-03T16:30:14;2.80;;;0.70;;
72501;SDS011;60524;49.874;8.652;2022-07-03T16:32:40;1.73;;;0.73;;
72501;SDS011;60524;49.874;8.652;2022-07-03T16:35:43;1.30;;;0.50;;
72501;SDS011;60524;49.874;8.652;2022-07-03T16:38:10;3.95;;;0.50;;
72501;SDS011;60524;49.874;8.652;2022-07-03T16:40:38;2.13;;;0.60;;
72501;SDS011;60524;49.874;8.652;2022-07-03T16:43:06;0.70;;;0.45;;
72501;SDS011;60524;49.874;8.652;2022-07-03T16:45:34;0.85;;;0.35;;
72501;SDS011;60524;49.874;8.652;2022-07-03T16:48:23;2.50;;;0.60;;
72501;SDS011;60524;49.874;8.652;2022-07-03T16:50:53;0.93;;;0.47;;
72501;SDS011;60524;49.874;8.652;2022-07-03T16:53:22;2.22;;;0.70;;